sensor_id;sensor_type;location;lat;lon;timestamp;P1;durP1;ratioP1;P2;durP2;ratioP2
36789;SDS011;22740;52.182;8.780;2023-12-20T00:00:56;211.13;;;196.98;;
36789;SDS011;22740;52.182;8.780;2023-12-20T00:06:58;216.30;;;201.70;;
36789;SDS011;22740;52.182;8.780;2023-12-20T00:13:00;219.35;;;204.45;;
36789;SDS011;22740;52.182;8.780;2023-12-20T00:19:02;178.35;;;165.65;;
36789;SDS011;22740;52.182;8.780;2023-12-20T00:25:04;167.13;;;154.65;;
36789;SDS011;22740;52.182;8.780;2023-12-20T00:31:06;155.23;;;144.02;;
36789;SDS011;22740;52.182;8.780;2023-12-20T00:37:08;152.27;;;141.27;;
36789;SDS011;22740;52.182;8.780;2023-12-20T00:43:10;146.13;;;135.73;;
36789;SDS011;22740;52.182;8.780;2023-12-20T00:49:12;150.15;;;138.98;;
36789;SDS011;22740;52.182;8.780;2023-12-20T00:55:14;151.85;;;140.85;;
36789;SDS011;22740;52.182;8.780;2023-12-20T01:01:16;139.85;;;129.75;;
36789;SDS011;22740;52.182;8.780;2023-12-20T01:07:18;137.75;;;127.63;;
36789;SDS011;22740;52.182;8.780;2023-12-20T01:13:20;127.72;;;118.63;;
36789;SDS011;22740;52.182;8.780;2023-12-20T01:19:22;125.20;;;116.18;;
36789;SDS011;22740;52.182;8.780;2023-12-20T01:25:26;126.63;;;117.47;;
36789;SDS011;22740;52.182;8.780;2023-12-20T01:31:28;113.35;;;105.05;;
36789;SDS011;22740;52.182;8.780;2023-12-20T01:37:30;116.72;;;107.97;;
36789;SDS011;22740;52.182;8.780;2023-12-20T01:43:32;116.75;;;108.35;;
36789;SDS011;22740;52.182;8.780;2023-12-20T01:49:50;121.75;;;112.95;;
36789;SDS011;22740;52.182;8.780;2023-12-20T01:55:52;122.20;;;113.40;;
36789;SDS011;22740;52.182;8.780;2023-12-20T02:01:57;118.32;;;110.10;;
36789;SDS011;22740;52.182;8.780;2023-12-20T02:07:59;110.68;;;102.68;;
36789;SDS011;22740;52.182;8.780;2023-12-20T02:14:02;115.28;;;106.78;;
36789;SDS011;22740;52.182;8.780;2023-12-20T02:20:04;113.13;;;105.05;;
36789;SDS011;22740;52.182;8.780;2023-12-20T02:26:07;109.57;;;101.57;;
36789;SDS011;22740;52.182;8.780;2023-12-20T02:32:09;108.47;;;100.57;;
36789;SDS011;22740;52.182;8.780;2023-12-20T02:38:11;113.05;;;104.78;;
36789;SDS011;22740;52.182;8.780;2023-12-20T02:44:13;118.63;;;109.63;;
36789;SDS011;22740;52.182;8.780;2023-12-20T02:50:15;123.53;;;114.43;;
36789;SDS011;22740;52.182;8.780;2023-12-20T02:56:17;116.50;;;107.70;;
36789;SDS011;22740;52.182;8.780;2023-12-20T03:02:18;112.13;;;103.78;;
36789;SDS011;22740;52.182;8.780;2023-12-20T03:08:20;110.80;;;102.40;;
36789;SDS011;22740;52.182;8.780;2023-12-20T03:14:22;108.80;;;100.60;;
36789;SDS011;22740;52.182;8.780;2023-12-20T03:20:25;104.38;;;96.90;;
36789;SDS011;22740;52.182;8.780;2023-12-20T03:32:31;97.75;;;90.45;;
36789;SDS011;22740;52.182;8.780;2023-12-20T03:38:33;103.30;;;95.55;;
36789;SDS011;22740;52.182;8.780;2023-12-20T03:44:38;99.63;;;92.63;;
36789;SDS011;22740;52.182;8.780;2023-12-20T03:50:40;101.13;;;93.65;;
36789;SDS011;22740;52.182;8.780;2023-12-20T03:56:42;97.72;;;90.32;;
36789;SDS011;22740;52.182;8.780;2023-12-20T04:02:44;91.95;;;84.65;;
36789;SDS011;22740;52.182;8.780;2023-12-20T04:08:45;91.72;;;84.78;;
36789;SDS011;22740;52.182;8.780;2023-12-20T04:14:47;90.10;;;83.00;;
36789;SDS011;22740;52.182;8.780;2023-12-20T04:20:49;89.80;;;82.70;;
36789;SDS011;22740;52.182;8.780;2023-12-20T04:26:52;87.95;;;80.97;;
36789;SDS011;22740;52.182;8.780;2023-12-20T04:32:54;85.43;;;78.78;;
36789;SDS011;22740;52.182;8.780;2023-12-20T04:38:56;90.38;;;83.25;;
36789;SDS011;22740;52.182;8.780;2023-12-20T04:44:58;77.70;;;71.80;;
36789;SDS011;22740;52.182;8.780;2023-12-20T04:51:00;87.72;;;80.47;;
36789;SDS011;22740;52.182;8.780;2023-12-20T04:57:02;91.38;;;83.93;;
36789;SDS011;22740;52.182;8.780;2023-12-20T05:03:05;89.03;;;81.45;;
36789;SDS011;22740;52.182;8.780;2023-12-20T05:09:06;89.15;;;80.97;;
36789;SDS011;22740;52.182;8.780;2023-12-20T05:15:08;84.57;;;77.47;;
36789;SDS011;22740;52.182;8.780;2023-12-20T05:21:10;76.95;;;70.30;;
36789;SDS011;22740;52.182;8.780;2023-12-20T05:27:12;81.28;;;73.57;;
36789;SDS011;22740;52.182;8.780;2023-12-20T05:33:14;76.47;;;69.88;;
36789;SDS011;22740;52.182;8.780;2023-12-20T05:39:16;75.97;;;69.22;;
36789;SDS011;22740;52.182;8.780;2023-12-20T05:45:18;79.07;;;72.18;;
36789;SDS011;22740;52.182;8.780;2023-12-20T05:51:20;76.25;;;69.82;;
36789;SDS011;22740;52.182;8.780;2023-12-20T05:57:22;78.50;;;71.75;;
36789;SDS011;22740;52.182;8.780;2023-12-20T06:03:24;77.53;;;70.47;;
36789;SDS011;22740;52.182;8.780;2023-12-20T06:09:26;76.15;;;69.50;;
36789;SDS011;22740;52.182;8.780;2023-12-20T06:15:32;75.80;;;69.25;;
36789;SDS011;22740;52.182;8.780;2023-12-20T06:21:35;77.32;;;70.93;;
36789;SDS011;22740;52.182;8.780;2023-12-20T06:27:37;78.40;;;71.45;;
36789;SDS011;22740;52.182;8.780;2023-12-20T06:33:39;73.18;;;66.78;;
36789;SDS011;22740;52.182;8.780;2023-12-20T06:39:42;76.43;;;69.47;;
36789;SDS011;22740;52.182;8.780;2023-12-20T06:45:44;75.57;;;68.82;;
36789;SDS011;22740;52.182;8.780;2023-12-20T06:51:46;79.65;;;72.57;;
36789;SDS011;22740;52.182;8.780;2023-12-20T06:57:48;81.40;;;73.72;;
36789;SDS011;22740;52.182;8.780;2023-12-20T07:03:50;82.63;;;74.68;;
36789;SDS011;22740;52.182;8.780;2023-12-20T07:09:52;76.15;;;68.72;;
36789;SDS011;22740;52.182;8.780;2023-12-20T07:15:54;74.97;;;67.30;;
36789;SDS011;22740;52.182;8.780;2023-12-20T07:21:56;72.90;;;65.75;;
36789;SDS011;22740;52.182;8.780;2023-12-20T07:27:58;72.70;;;65.97;;
36789;SDS011;22740;52.182;8.780;2023-12-20T07:34:00;79.25;;;71.57;;
36789;SDS011;22740;52.182;8.780;2023-12-20T07:40:02;81.47;;;73.45;;
36789;SDS011;22740;52.182;8.780;2023-12-20T07:46:05;94.43;;;85.35;;
36789;SDS011;22740;52.182;8.780;2023-12-20T07:52:08;91.95;;;83.55;;
36789;SDS011;22740;52.182;8.780;2023-12-20T07:58:10;103.65;;;94.65;;
36789;SDS011;22740;52.182;8.780;2023-12-20T08:04:12;110.47;;;100.68;;
36789;SDS011;22740;52.182;8.780;2023-12-20T08:10:14;110.65;;;101.30;;
36789;SDS011;22740;52.182;8.780;2023-12-20T08:16:16;107.13;;;98.53;;
36789;SDS011;22740;52.182;8.780;2023-12-20T08:22:19;93.32;;;85.13;;
36789;SDS011;22740;52.182;8.780;2023-12-20T08:28:21;90.43;;;82.07;;
36789;SDS011;22740;52.182;8.780;2023-12-20T08:34:23;89.78;;;81.90;;
36789;SDS011;22740;52.182;8.780;2023-12-20T08:40:26;89.82;;;82.10;;
36789;SDS011;22740;52.182;8.780;2023-12-20T08:46:28;90.07;;;82.20;;
36789;SDS011;22740;52.182;8.780;2023-12-20T08:52:30;84.13;;;76.93;;
36789;SDS011;22740;52.182;8.780;2023-12-20T08:58:32;79.40;;;72.70;;
36789;SDS011;22740;52.182;8.780;2023-12-20T09:04:35;91.00;;;83.68;;
36789;SDS011;22740;52.182;8.780;2023-12-20T09:10:37;84.60;;;76.63;;
36789;SDS011;22740;52.182;8.780;2023-12-20T09:16:39;91.55;;;83.07;;
36789;SDS011;22740;52.182;8.780;2023-12-20T09:22:41;99.32;;;90.63;;
36789;SDS011;22740;52.182;8.780;2023-12-20T09:28:43;92.10;;;83.90;;
36789;SDS011;22740;52.182;8.780;2023-12-20T09:34:45;88.78;;;80.78;;
36789;SDS011;22740;52.182;8.780;2023-12-20T09:40:49;108.30;;;99.65;;
36789;SDS011;22740;52.182;8.780;2023-12-20T09:46:51;99.57;;;90.68;;
36789;SDS011;22740;52.182;8.780;2023-12-20T09:52:55;101.53;;;93.13;;
36789;SDS011;22740;52.182;8.780;2023-12-20T09:59:00;104.45;;;96.07;;
36789;SDS011;22740;52.182;8.780;2023-12-20T10:05:02;91.85;;;84.18;;
36789;SDS011;22740;52.182;8.780;2023-12-20T10:11:10;99.60;;;91.10;;
36789;SDS011;22740;52.182;8.780;2023-12-20T10:17:12;106.65;;;97.90;;
36789;SDS011;22740;52.182;8.780;2023-12-20T10:23:14;116.63;;;107.35;;
36789;SDS011;22740;52.182;8.780;2023-12-20T10:29:17;122.70;;;113.25;;
36789;SDS011;22740;52.182;8.780;2023-12-20T10:35:19;127.93;;;118.40;;
36789;SDS011;22740;52.182;8.780;2023-12-20T10:41:30;135.20;;;125.13;;
36789;SDS011;22740;52.182;8.780;2023-12-20T10:47:34;142.07;;;132.02;;
36789;SDS011;22740;52.182;8.780;2023-12-20T10:53:40;154.55;;;143.27;;
36789;SDS011;22740;52.182;8.780;2023-12-20T10:59:42;138.63;;;128.90;;
36789;SDS011;22740;52.182;8.780;2023-12-20T11:05:52;138.57;;;129.13;;
36789;SDS011;22740;52.182;8.780;2023-12-20T11:12:25;128.23;;;119.10;;
36789;SDS011;22740;52.182;8.780;2023-12-20T11:18:36;102.68;;;95.47;;
36789;SDS011;22740;52.182;8.780;2023-12-20T11:24:38;105.03;;;97.53;;
36789;SDS011;22740;52.182;8.780;2023-12-20T11:30:53;102.93;;;95.45;;
36789;SDS011;22740;52.182;8.780;2023-12-20T11:36:57;101.32;;;93.78;;
36789;SDS011;22740;52.182;8.780;2023-12-20T11:43:00;96.30;;;88.88;;
36789;SDS011;22740;52.182;8.780;2023-12-20T11:49:02;92.78;;;85.88;;
36789;SDS011;22740;52.182;8.780;2023-12-20T11:55:05;82.30;;;76.05;;
36789;SDS011;22740;52.182;8.780;2023-12-20T12:01:07;87.68;;;81.25;;
36789;SDS011;22740;52.182;8.780;2023-12-20T12:07:10;106.15;;;98.32;;
36789;SDS011;22740;52.182;8.780;2023-12-20T12:13:12;108.65;;;100.68;;
36789;SDS011;22740;52.182;8.780;2023-12-20T12:19:21;114.25;;;105.93;;
36789;SDS011;22740;52.182;8.780;2023-12-20T12:25:25;139.55;;;129.75;;
36789;SDS011;22740;52.182;8.780;2023-12-20T12:31:27;170.65;;;158.82;;
36789;SDS011;22740;52.182;8.780;2023-12-20T12:37:29;210.27;;;196.60;;
36789;SDS011;22740;52.182;8.780;2023-12-20T12:43:31;200.73;;;187.10;;
36789;SDS011;22740;52.182;8.780;2023-12-20T12:49:37;158.48;;;148.00;;
36789;SDS011;22740;52.182;8.780;2023-12-20T12:55:39;141.95;;;132.23;;
36789;SDS011;22740;52.182;8.780;2023-12-20T13:01:41;107.05;;;99.60;;
36789;SDS011;22740;52.182;8.780;2023-12-20T13:07:43;94.22;;;87.38;;
36789;SDS011;22740;52.182;8.780;2023-12-20T13:19:54;77.90;;;72.20;;
36789;SDS011;22740;52.182;8.780;2023-12-20T13:25:56;70.97;;;66.18;;
36789;SDS011;22740;52.182;8.780;2023-12-20T13:31:58;73.38;;;68.18;;
36789;SDS011;22740;52.182;8.780;2023-12-20T13:38:01;63.92;;;59.53;;
36789;SDS011;22740;52.182;8.780;2023-12-20T13:44:03;64.60;;;59.90;;
36789;SDS011;22740;52.182;8.780;2023-12-20T13:50:05;65.55;;;60.95;;
36789;SDS011;22740;52.182;8.780;2023-12-20T13:56:07;64.53;;;59.90;;
36789;SDS011;22740;52.182;8.780;2023-12-20T14:02:09;68.75;;;63.85;;
36789;SDS011;22740;52.182;8.780;2023-12-20T14:08:11;71.90;;;66.85;;
36789;SDS011;22740;52.182;8.780;2023-12-20T14:14:13;69.50;;;64.35;;
36789;SDS011;22740;52.182;8.780;2023-12-20T14:20:15;69.65;;;64.35;;
36789;SDS011;22740;52.182;8.780;2023-12-20T14:26:17;66.70;;;62.00;;
36789;SDS011;22740;52.182;8.780;2023-12-20T14:32:19;72.25;;;67.03;;
36789;SDS011;22740;52.182;8.780;2023-12-20T14:38:21;67.35;;;62.33;;
36789;SDS011;22740;52.182;8.780;2023-12-20T14:44:23;73.88;;;68.47;;
36789;SDS011;22740;52.182;8.780;2023-12-20T14:50:25;75.82;;;70.10;;
36789;SDS011;22740;52.182;8.780;2023-12-20T14:56:27;74.60;;;68.95;;
36789;SDS011;22740;52.182;8.780;2023-12-20T15:02:29;80.03;;;74.22;;
36789;SDS011;22740;52.182;8.780;2023-12-20T15:08:32;77.00;;;71.05;;
36789;SDS011;22740;52.182;8.780;2023-12-20T15:14:34;76.25;;;70.43;;
36789;SDS011;22740;52.182;8.780;2023-12-20T15:20:36;78.88;;;72.75;;
36789;SDS011;22740;52.182;8.780;2023-12-20T15:26:38;78.57;;;72.55;;
36789;SDS011;22740;52.182;8.780;2023-12-20T15:32:40;81.72;;;75.45;;
36789;SDS011;22740;52.182;8.780;2023-12-20T15:38:42;91.82;;;85.00;;
36789;SDS011;22740;52.182;8.780;2023-12-20T15:44:44;101.43;;;94.07;;
36789;SDS011;22740;52.182;8.780;2023-12-20T15:50:46;111.15;;;103.25;;
36789;SDS011;22740;52.182;8.780;2023-12-20T15:56:47;119.15;;;110.35;;
36789;SDS011;22740;52.182;8.780;2023-12-20T16:02:49;129.07;;;119.97;;
36789;SDS011;22740;52.182;8.780;2023-12-20T16:08:51;132.07;;;122.90;;
36789;SDS011;22740;52.182;8.780;2023-12-20T16:14:53;134.73;;;125.30;;
36789;SDS011;22740;52.182;8.780;2023-12-20T16:20:55;144.20;;;134.38;;
36789;SDS011;22740;52.182;8.780;2023-12-20T16:26:58;141.07;;;131.45;;
36789;SDS011;22740;52.182;8.780;2023-12-20T16:33:00;142.25;;;132.65;;
36789;SDS011;22740;52.182;8.780;2023-12-20T16:39:03;139.57;;;129.77;;
36789;SDS011;22740;52.182;8.780;2023-12-20T16:45:05;145.30;;;135.40;;
36789;SDS011;22740;52.182;8.780;2023-12-20T16:51:08;142.95;;;133.38;;
36789;SDS011;22740;52.182;8.780;2023-12-20T16:57:10;152.35;;;142.23;;
36789;SDS011;22740;52.182;8.780;2023-12-20T17:03:12;149.15;;;139.35;;
36789;SDS011;22740;52.182;8.780;2023-12-20T17:09:14;134.77;;;125.68;;
36789;SDS011;22740;52.182;8.780;2023-12-20T17:15:17;126.47;;;117.85;;
36789;SDS011;22740;52.182;8.780;2023-12-20T17:21:19;123.57;;;115.20;;
36789;SDS011;22740;52.182;8.780;2023-12-20T17:27:22;124.82;;;116.40;;
36789;SDS011;22740;52.182;8.780;2023-12-20T17:33:24;125.97;;;117.28;;
36789;SDS011;22740;52.182;8.780;2023-12-20T17:39:26;116.10;;;108.03;;
36789;SDS011;22740;52.182;8.780;2023-12-20T17:45:28;117.93;;;109.82;;
36789;SDS011;22740;52.182;8.780;2023-12-20T17:51:30;132.05;;;122.88;;
36789;SDS011;22740;52.182;8.780;2023-12-20T17:57:32;140.70;;;131.13;;
36789;SDS011;22740;52.182;8.780;2023-12-20T18:03:34;165.30;;;154.05;;
36789;SDS011;22740;52.182;8.780;2023-12-20T18:09:36;171.05;;;159.65;;
36789;SDS011;22740;52.182;8.780;2023-12-20T18:15:37;181.05;;;168.93;;
36789;SDS011;22740;52.182;8.780;2023-12-20T18:21:39;198.02;;;184.35;;
36789;SDS011;22740;52.182;8.780;2023-12-20T18:27:41;190.43;;;177.77;;
36789;SDS011;22740;52.182;8.780;2023-12-20T18:33:43;211.68;;;197.30;;
36789;SDS011;22740;52.182;8.780;2023-12-20T18:39:45;210.35;;;195.98;;
36789;SDS011;22740;52.182;8.780;2023-12-20T18:45:48;233.25;;;217.30;;
36789;SDS011;22740;52.182;8.780;2023-12-20T18:51:50;223.25;;;208.05;;
36789;SDS011;22740;52.182;8.780;2023-12-20T18:57:53;218.07;;;203.40;;
36789;SDS011;22740;52.182;8.780;2023-12-20T19:03:54;217.55;;;202.55;;
36789;SDS011;22740;52.182;8.780;2023-12-20T19:09:56;230.82;;;215.02;;
36789;SDS011;22740;52.182;8.780;2023-12-20T19:15:59;233.07;;;217.60;;
36789;SDS011;22740;52.182;8.780;2023-12-20T19:22:02;258.90;;;241.73;;
36789;SDS011;22740;52.182;8.780;2023-12-20T19:28:04;262.30;;;245.27;;
36789;SDS011;22740;52.182;8.780;2023-12-20T19:34:06;269.75;;;252.70;;
36789;SDS011;22740;52.182;8.780;2023-12-20T19:40:08;284.08;;;265.52;;
36789;SDS011;22740;52.182;8.780;2023-12-20T19:46:11;282.38;;;264.48;;
36789;SDS011;22740;52.182;8.780;2023-12-20T19:52:14;290.40;;;272.02;;
36789;SDS011;22740;52.182;8.780;2023-12-20T19:58:16;275.58;;;258.05;;
36789;SDS011;22740;52.182;8.780;2023-12-20T20:04:18;263.55;;;246.57;;
36789;SDS011;22740;52.182;8.780;2023-12-20T20:10:20;293.88;;;275.40;;
36789;SDS011;22740;52.182;8.780;2023-12-20T20:16:22;297.85;;;279.02;;
36789;SDS011;22740;52.182;8.780;2023-12-20T20:22:24;289.48;;;271.02;;
36789;SDS011;22740;52.182;8.780;2023-12-20T20:28:26;275.85;;;258.20;;
36789;SDS011;22740;52.182;8.780;2023-12-20T20:34:29;290.58;;;272.42;;
36789;SDS011;22740;52.182;8.780;2023-12-20T20:40:31;294.45;;;276.02;;
36789;SDS011;22740;52.182;8.780;2023-12-20T20:46:33;272.27;;;254.93;;
36789;SDS011;22740;52.182;8.780;2023-12-20T20:52:35;266.38;;;249.45;;
36789;SDS011;22740;52.182;8.780;2023-12-20T20:58:37;270.55;;;253.20;;
36789;SDS011;22740;52.182;8.780;2023-12-20T21:04:39;285.25;;;267.27;;
36789;SDS011;22740;52.182;8.780;2023-12-20T21:10:41;305.15;;;285.75;;
36789;SDS011;22740;52.182;8.780;2023-12-20T21:16:45;314.50;;;294.67;;
36789;SDS011;22740;52.182;8.780;2023-12-20T21:22:47;351.52;;;329.25;;
36789;SDS011;22740;52.182;8.780;2023-12-20T21:28:49;357.00;;;334.67;;
36789;SDS011;22740;52.182;8.780;2023-12-20T21:34:51;369.17;;;346.35;;
36789;SDS011;22740;52.182;8.780;2023-12-20T21:40:53;362.92;;;340.45;;
36789;SDS011;22740;52.182;8.780;2023-12-20T21:46:55;361.77;;;339.38;;
36789;SDS011;22740;52.182;8.780;2023-12-20T21:52:57;366.42;;;343.77;;
36789;SDS011;22740;52.182;8.780;2023-12-20T21:58:59;362.20;;;339.88;;
36789;SDS011;22740;52.182;8.780;2023-12-20T22:05:01;344.98;;;324.20;;
36789;SDS011;22740;52.182;8.780;2023-12-20T22:11:04;323.55;;;303.95;;
36789;SDS011;22740;52.182;8.780;2023-12-20T22:17:06;331.30;;;311.23;;
36789;SDS011;22740;52.182;8.780;2023-12-20T22:23:07;376.17;;;352.75;;
36789;SDS011;22740;52.182;8.780;2023-12-20T22:29:09;416.20;;;390.35;;
36789;SDS011;22740;52.182;8.780;2023-12-20T22:35:11;464.60;;;435.45;;
36789;SDS011;22740;52.182;8.780;2023-12-20T22:41:13;500.73;;;469.40;;
36789;SDS011;22740;52.182;8.780;2023-12-20T22:47:16;513.35;;;481.08;;
36789;SDS011;22740;52.182;8.780;2023-12-20T22:53:18;511.52;;;479.77;;
36789;SDS011;22740;52.182;8.780;2023-12-20T22:59:20;551.15;;;516.38;;
36789;SDS011;22740;52.182;8.780;2023-12-20T23:05:22;545.70;;;510.98;;
36789;SDS011;22740;52.182;8.780;2023-12-20T23:11:23;553.38;;;518.05;;
36789;SDS011;22740;52.182;8.780;2023-12-20T23:17:25;546.35;;;511.52;;
36789;SDS011;22740;52.182;8.780;2023-12-20T23:23:27;553.17;;;517.95;;
36789;SDS011;22740;52.182;8.780;2023-12-20T23:29:29;545.40;;;510.63;;
36789;SDS011;22740;52.182;8.780;2023-12-20T23:35:31;575.58;;;539.03;;
36789;SDS011;22740;52.182;8.780;2023-12-20T23:41:34;582.20;;;545.13;;
36789;SDS011;22740;52.182;8.780;2023-12-20T23:47:36;593.72;;;555.83;;
36789;SDS011;22740;52.182;8.780;2023-12-20T23:53:38;587.15;;;549.38;;
36789;SDS011;22740;52.182;8.780;2023-12-20T23:59:40;598.33;;;559.88;;
